createdAt,value
2018-11-10T00:01:35.253Z,7.84
2018-11-10T00:04:04.174Z,7.58
2018-11-10T00:06:33.111Z,7.56
2018-11-10T00:09:02.027Z,7.51
2018-11-10T00:11:30.985Z,7.50
2018-11-10T00:13:59.907Z,7.43
2018-11-10T00:16:28.905Z,7.60
2018-11-10T00:18:57.732Z,7.35
2018-11-10T00:21:26.680Z,7.53
2018-11-10T00:23:55.589Z,7.49
2018-11-10T00:26:24.519Z,7.61
2018-11-10T00:28:53.404Z,7.41
2018-11-10T00:31:22.353Z,7.30
2018-11-10T00:33:51.254Z,7.35
2018-11-10T00:36:20.157Z,7.50
2018-11-10T00:38:48.998Z,7.31
2018-11-10T00:41:17.913Z,7.09
2018-11-10T00:43:46.951Z,7.17
2018-11-10T00:46:15.847Z,7.20
2018-11-10T00:48:44.765Z,7.19
2018-11-10T00:51:13.715Z,6.93
2018-11-10T00:53:42.664Z,6.95
2018-11-10T00:56:11.551Z,7.22
2018-11-10T00:58:40.462Z,7.26
2018-11-10T01:01:09.363Z,7.04
2018-11-10T01:03:38.379Z,7.15
2018-11-10T01:06:07.290Z,7.42
2018-11-10T01:08:36.189Z,7.53
2018-11-10T01:11:05.293Z,7.32
2018-11-10T01:13:34.194Z,7.38
2018-11-10T01:16:03.101Z,7.36
2018-11-10T01:18:31.979Z,7.42
2018-11-10T01:21:00.899Z,7.58
2018-11-10T01:23:29.761Z,7.48
2018-11-10T01:25:58.871Z,7.24
2018-11-10T01:28:27.796Z,7.13
2018-11-10T01:30:56.689Z,7.25
2018-11-10T01:33:25.627Z,7.12
2018-11-10T01:35:54.450Z,7.22
2018-11-10T01:38:23.407Z,7.18
2018-11-10T01:40:52.276Z,7.28
2018-11-10T01:43:21.330Z,7.15
2018-11-10T01:45:50.192Z,7.45
2018-11-10T01:48:19.157Z,7.25
2018-11-10T01:50:48.083Z,7.21
2018-11-10T01:53:16.915Z,7.10
2018-11-10T01:55:45.884Z,7.21
2018-11-10T01:58:14.791Z,7.21
2018-11-10T02:00:43.702Z,7.15
2018-11-10T02:03:12.709Z,7.01
2018-11-10T02:05:41.622Z,6.80
2018-11-10T02:08:10.523Z,6.59
2018-11-10T02:10:39.450Z,6.66
2018-11-10T02:13:08.423Z,6.73
2018-11-10T02:15:37.361Z,6.71
2018-11-10T02:18:06.418Z,6.70
2018-11-10T02:20:35.472Z,6.94
2018-11-10T02:23:04.427Z,6.85
2018-11-10T02:25:34.178Z,6.66
2018-11-10T02:28:03.148Z,6.65
2018-11-10T02:30:32.069Z,6.69
2018-11-10T02:33:00.950Z,6.65
2018-11-10T02:35:29.845Z,6.78
2018-11-10T02:37:58.741Z,6.79
2018-11-10T02:40:27.713Z,6.75
2018-11-10T02:42:56.672Z,6.84
2018-11-10T02:45:25.550Z,6.52
2018-11-10T02:47:54.446Z,6.74
2018-11-10T02:50:23.340Z,6.66
2018-11-10T02:52:52.264Z,6.44
2018-11-10T02:55:21.144Z,6.41
2018-11-10T02:57:50.103Z,6.39
2018-11-10T03:00:19.070Z,6.31
2018-11-10T03:02:47.946Z,6.30
2018-11-10T03:05:16.864Z,6.54
2018-11-10T03:07:45.798Z,6.54
2018-11-10T03:10:14.729Z,6.43
2018-11-10T03:12:43.664Z,6.54
2018-11-10T03:15:13.196Z,6.36
2018-11-10T03:17:42.214Z,6.50
2018-11-10T03:20:15.357Z,6.59
2018-11-10T03:22:44.768Z,6.43
2018-11-10T03:25:13.724Z,6.58
2018-11-10T03:27:42.619Z,6.56
2018-11-10T03:30:11.631Z,6.59
2018-11-10T03:32:40.589Z,6.46
2018-11-10T03:35:10.248Z,6.62
2018-11-10T03:37:39.602Z,6.52
2018-11-10T03:40:09.542Z,6.51
2018-11-10T03:42:38.970Z,6.76
2018-11-10T03:45:09.007Z,6.56
2018-11-10T03:47:37.950Z,6.26
2018-11-10T03:50:07.391Z,6.07
2018-11-10T03:52:36.471Z,6.33
2018-11-10T03:55:06.489Z,6.19
2018-11-10T03:57:35.467Z,6.36
2018-11-10T04:00:04.423Z,6.47
2018-11-10T04:02:33.333Z,6.57
2018-11-10T04:05:02.222Z,6.52
2018-11-10T04:07:31.173Z,6.73
2018-11-10T04:10:00.064Z,6.39
2018-11-10T04:12:29.016Z,6.26
2018-11-10T04:14:57.888Z,6.36
2018-11-10T04:17:26.710Z,6.32
2018-11-10T04:19:55.636Z,6.22
2018-11-10T04:22:28.791Z,6.37
2018-11-10T04:24:57.685Z,6.26
2018-11-10T04:27:26.572Z,6.27
2018-11-10T04:29:55.426Z,6.00
2018-11-10T04:32:24.297Z,5.94
2018-11-10T04:34:53.193Z,5.84
2018-11-10T04:37:22.081Z,5.88
2018-11-10T04:39:51.048Z,5.95
2018-11-10T04:42:19.898Z,5.94
2018-11-10T04:44:48.812Z,5.87
2018-11-10T04:47:17.786Z,5.83
2018-11-10T04:49:46.690Z,5.74
2018-11-10T04:52:15.574Z,5.57
2018-11-10T04:54:44.501Z,5.59
2018-11-10T04:57:13.587Z,5.56
2018-11-10T04:59:42.482Z,5.59
2018-11-10T05:02:11.335Z,5.59
2018-11-10T05:04:40.269Z,5.58
2018-11-10T05:07:09.280Z,5.55
2018-11-10T05:09:38.172Z,5.42
2018-11-10T05:12:07.105Z,5.57
2018-11-10T05:14:36.007Z,5.60
2018-11-10T05:17:05.229Z,5.67
2018-11-10T05:19:34.315Z,5.78
2018-11-10T05:22:03.269Z,5.60
2018-11-10T05:24:32.142Z,5.56
2018-11-10T05:27:01.040Z,5.60
2018-11-10T05:29:29.958Z,5.54
2018-11-10T05:31:58.902Z,5.65
2018-11-10T05:34:27.906Z,5.59
2018-11-10T05:36:56.910Z,5.67
2018-11-10T05:39:25.738Z,5.85
2018-11-10T05:41:54.664Z,5.68
2018-11-10T05:44:23.598Z,5.71
2018-11-10T05:46:58.871Z,5.86
2018-11-10T05:49:27.790Z,5.85
2018-11-10T05:51:56.650Z,5.96
2018-11-10T05:54:25.707Z,6.20
2018-11-10T05:56:54.649Z,6.38
2018-11-10T05:59:23.596Z,6.15
2018-11-10T06:01:52.468Z,6.05
2018-11-10T06:04:21.330Z,6.17
2018-11-10T06:06:50.256Z,6.27
2018-11-10T06:09:19.256Z,6.19
2018-11-10T06:11:48.080Z,6.45
2018-11-10T06:14:16.901Z,6.49
2018-11-10T06:16:45.790Z,6.37
2018-11-10T06:19:14.645Z,6.25
2018-11-10T06:21:43.611Z,6.54
2018-11-10T06:24:12.542Z,6.74
2018-11-10T06:26:41.528Z,6.62
2018-11-10T06:29:10.408Z,6.65
2018-11-10T06:31:39.340Z,7.02
2018-11-10T06:34:08.225Z,6.97
2018-11-10T06:36:37.090Z,7.23
2018-11-10T06:39:08.638Z,7.12
2018-11-10T06:41:37.924Z,7.23
2018-11-10T06:44:06.785Z,7.27
2018-11-10T06:46:35.704Z,7.40
2018-11-10T06:49:04.633Z,7.55
2018-11-10T06:51:33.543Z,7.64
2018-11-10T06:54:02.522Z,7.84
2018-11-10T06:56:32.429Z,7.92
2018-11-10T06:59:01.388Z,8.01
2018-11-10T07:01:30.506Z,8.06
2018-11-10T07:03:59.389Z,8.01
2018-11-10T07:06:28.290Z,7.95
2018-11-10T07:08:57.170Z,8.06
2018-11-10T07:11:26.079Z,8.27
2018-11-10T07:13:56.224Z,8.30
2018-11-10T07:16:25.151Z,8.08
2018-11-10T07:18:54.224Z,8.10
2018-11-10T07:21:23.688Z,8.18
2018-11-10T07:23:52.626Z,8.17
2018-11-10T07:26:21.633Z,8.17
2018-11-10T07:28:50.554Z,8.39
2018-11-10T07:31:19.432Z,8.29
2018-11-10T07:33:48.321Z,8.50
2018-11-10T07:36:17.306Z,8.57
2018-11-10T07:38:46.275Z,8.59
2018-11-10T07:41:15.397Z,8.88
2018-11-10T07:43:44.294Z,8.79
2018-11-10T07:46:13.223Z,8.66
2018-11-10T07:48:42.262Z,8.71
2018-11-10T07:51:11.260Z,8.73
2018-11-10T07:53:40.204Z,8.87
2018-11-10T07:56:09.696Z,8.77
2018-11-10T07:58:38.733Z,9.26
2018-11-10T08:01:07.725Z,9.32
2018-11-10T08:03:37.384Z,9.44
2018-11-10T08:06:06.681Z,9.60
2018-11-10T08:08:35.590Z,9.79
2018-11-10T08:11:04.625Z,9.74
2018-11-10T08:13:34.193Z,9.79
2018-11-10T08:16:03.224Z,9.80
2018-11-10T08:18:32.191Z,10.07
2018-11-10T08:21:01.126Z,10.12
2018-11-10T08:23:30.098Z,10.83
2018-11-10T08:25:59.021Z,11.03
2018-11-10T08:28:27.912Z,10.89
2018-11-10T08:30:57.483Z,11.01
2018-11-10T08:33:26.369Z,10.54
2018-11-10T08:35:55.265Z,10.74
2018-11-10T08:38:24.224Z,10.77
2018-11-10T08:40:53.247Z,10.68
2018-11-10T08:43:22.214Z,10.42
2018-11-10T08:45:51.125Z,10.31
2018-11-10T08:48:20.184Z,10.66
2018-11-10T08:50:49.391Z,10.86
2018-11-10T08:53:18.321Z,10.80
2018-11-10T08:55:47.260Z,10.97
2018-11-10T08:58:16.187Z,11.15
2018-11-10T09:00:45.272Z,11.55
2018-11-10T09:03:14.214Z,11.78
2018-11-10T09:05:43.083Z,12.11
2018-11-10T09:08:12.064Z,12.25
2018-11-10T09:10:40.962Z,12.23
2018-11-10T09:13:09.946Z,12.25
2018-11-10T09:15:39.025Z,12.31
2018-11-10T09:18:07.968Z,12.23
2018-11-10T09:20:36.873Z,12.18
2018-11-10T09:23:06.887Z,12.08
2018-11-10T09:25:35.744Z,12.15
2018-11-10T09:28:04.707Z,12.11
2018-11-10T09:30:33.610Z,12.16
2018-11-10T09:33:02.561Z,12.15
2018-11-10T09:35:31.946Z,12.03
2018-11-10T09:38:00.902Z,11.98
2018-11-10T09:40:29.844Z,12.12
2018-11-10T09:42:58.840Z,12.30
2018-11-10T09:45:28.017Z,12.34
2018-11-10T09:47:57.091Z,12.27
2018-11-10T09:50:26.087Z,12.48
2018-11-10T09:52:55.039Z,12.60
2018-11-10T09:55:23.911Z,12.66
2018-11-10T09:57:52.836Z,12.63
2018-11-10T10:00:22.612Z,12.79
2018-11-10T10:02:51.946Z,12.88
2018-11-10T10:05:20.692Z,12.95
2018-11-10T10:07:49.670Z,13.12
2018-11-10T10:10:18.913Z,13.26
2018-11-10T10:12:48.061Z,13.14
2018-11-10T10:15:18.173Z,13.31
2018-11-10T10:17:47.465Z,13.44
2018-11-10T10:20:17.823Z,13.34
2018-11-10T10:22:47.667Z,13.26
2018-11-10T10:25:17.355Z,13.29
2018-11-10T10:27:47.077Z,13.37
2018-11-10T10:30:22.080Z,13.53
2018-11-10T10:32:51.130Z,13.65
2018-11-10T10:35:20.193Z,13.58
2018-11-10T10:37:49.878Z,13.65
2018-11-10T10:40:18.963Z,13.81
2018-11-10T10:42:48.315Z,13.85
2018-11-10T10:45:19.177Z,13.89
2018-11-10T10:47:49.169Z,13.94
2018-11-10T10:50:19.260Z,13.97
2018-11-10T10:52:49.528Z,14.12
2018-11-10T10:55:20.041Z,14.25
2018-11-10T10:57:54.824Z,14.25
2018-11-10T11:00:30.677Z,14.37
2018-11-10T11:03:07.020Z,14.35
2018-11-10T11:05:45.257Z,14.08
2018-11-10T11:08:17.115Z,14.09
2018-11-10T11:10:48.122Z,14.32
2018-11-10T11:13:21.238Z,14.34
2018-11-10T11:15:50.305Z,14.32
2018-11-10T11:18:19.083Z,14.39
2018-11-10T11:20:48.002Z,14.54
2018-11-10T11:23:16.991Z,14.47
2018-11-10T11:25:45.942Z,14.66
2018-11-10T11:28:14.915Z,14.73
2018-11-10T11:30:43.895Z,14.55
2018-11-10T11:33:12.761Z,14.67
2018-11-10T11:35:41.715Z,14.74
2018-11-10T11:38:10.718Z,14.63
2018-11-10T11:40:39.717Z,14.59
2018-11-10T11:43:08.748Z,14.65
2018-11-10T11:45:37.778Z,14.79
2018-11-10T11:48:07.464Z,14.79
2018-11-10T11:50:41.632Z,14.82
2018-11-10T11:53:12.337Z,15.20
2018-11-10T11:55:41.491Z,15.49
2018-11-10T11:58:10.585Z,15.18
2018-11-10T12:00:39.828Z,15.20
2018-11-10T12:03:08.973Z,14.86
2018-11-10T12:05:37.927Z,14.85
2018-11-10T12:08:06.947Z,15.00
2018-11-10T12:10:35.948Z,15.02
2018-11-10T12:13:05.128Z,14.90
2018-11-10T12:15:34.118Z,15.02
2018-11-10T12:18:03.150Z,15.12
2018-11-10T12:20:32.155Z,15.19
2018-11-10T12:23:01.287Z,15.20
2018-11-10T12:25:30.323Z,15.19
2018-11-10T12:27:59.384Z,14.90
2018-11-10T12:30:28.545Z,14.98
2018-11-10T12:32:57.579Z,15.11
2018-11-10T12:35:26.695Z,15.41
2018-11-10T12:37:55.853Z,15.67
2018-11-10T12:40:25.466Z,15.86
2018-11-10T12:42:55.133Z,16.06
2018-11-10T12:45:30.363Z,16.06
2018-11-10T12:47:59.337Z,16.00
2018-11-10T12:50:28.202Z,15.98
2018-11-10T12:52:57.154Z,16.00
2018-11-10T12:55:26.350Z,16.01
2018-11-10T12:57:55.309Z,16.04
2018-11-10T13:00:24.258Z,15.75
2018-11-10T13:02:55.662Z,15.88
2018-11-10T13:05:24.667Z,15.91
2018-11-10T13:07:54.063Z,15.86
2018-11-10T13:10:23.325Z,15.90
2018-11-10T13:12:52.444Z,15.72
2018-11-10T13:15:21.819Z,15.75
2018-11-10T13:17:50.956Z,15.81
2018-11-10T13:20:20.001Z,15.88
2018-11-10T13:22:49.209Z,15.77
2018-11-10T13:25:18.413Z,15.70
2018-11-10T13:27:47.835Z,15.73
2018-11-10T13:30:17.191Z,15.76
2018-11-10T13:32:46.412Z,15.73
2018-11-10T13:35:15.425Z,15.78
2018-11-10T13:37:44.540Z,15.57
2018-11-10T13:40:13.526Z,15.56
2018-11-10T13:42:42.459Z,15.44
2018-11-10T13:45:13.308Z,15.68
2018-11-10T13:47:42.654Z,15.59
2018-11-10T13:50:12.621Z,15.65
2018-11-10T13:52:42.832Z,15.72
2018-11-10T13:55:12.417Z,15.70
2018-11-10T13:57:41.665Z,15.78
2018-11-10T14:00:14.198Z,15.78
2018-11-10T14:02:43.347Z,15.83
2018-11-10T14:05:13.045Z,15.87
2018-11-10T14:07:42.050Z,15.87
2018-11-10T14:10:12.662Z,15.87
2018-11-10T14:12:42.595Z,15.83
2018-11-10T14:15:11.600Z,15.81
2018-11-10T14:17:41.328Z,15.81
2018-11-10T14:20:12.397Z,15.75
2018-11-10T14:22:41.375Z,15.78
2018-11-10T14:25:12.183Z,15.78
2018-11-10T14:27:41.953Z,15.74
2018-11-10T14:30:13.060Z,15.67
2018-11-10T14:32:42.636Z,15.73
2018-11-10T14:35:12.307Z,15.68
2018-11-10T14:37:41.346Z,15.69
2018-11-10T14:40:13.513Z,15.67
2018-11-10T14:42:42.911Z,15.54
2018-11-10T14:45:13.280Z,15.59
2018-11-10T14:47:42.743Z,15.55
2018-11-10T14:50:12.591Z,15.55
2018-11-10T14:52:41.889Z,15.87
2018-11-10T14:55:11.538Z,15.99
2018-11-10T14:57:40.582Z,16.04
2018-11-10T15:00:14.748Z,16.03
2018-11-10T15:02:43.730Z,15.99
2018-11-10T15:05:13.326Z,15.96
2018-11-10T15:07:43.217Z,15.92
2018-11-10T15:10:14.303Z,15.85
2018-11-10T15:12:44.013Z,15.76
2018-11-10T15:15:14.380Z,15.69
2018-11-10T15:17:43.878Z,15.62
2018-11-10T15:20:14.366Z,15.53
2018-11-10T15:22:44.095Z,15.44
2018-11-10T15:25:14.551Z,15.36
2018-11-10T15:27:43.375Z,15.28
2018-11-10T15:30:14.374Z,15.23
2018-11-10T15:32:44.428Z,15.15
2018-11-10T15:35:14.411Z,15.08
2018-11-10T15:37:44.444Z,14.98
2018-11-10T15:40:14.287Z,14.91
2018-11-10T15:42:43.917Z,14.85
2018-11-10T15:45:14.247Z,14.69
2018-11-10T15:47:43.678Z,14.64
2018-11-10T15:50:14.529Z,14.56
2018-11-10T15:52:43.778Z,14.48
2018-11-10T15:55:13.443Z,14.42
2018-11-10T15:57:42.707Z,14.32
2018-11-10T16:00:14.395Z,14.12
2018-11-10T16:02:43.756Z,14.06
2018-11-10T16:05:13.257Z,13.81
2018-11-10T16:07:42.194Z,13.59
2018-11-10T16:10:11.677Z,13.56
2018-11-10T16:12:40.949Z,13.55
2018-11-10T16:15:13.154Z,13.50
2018-11-10T16:17:42.832Z,13.37
2018-11-10T16:20:15.818Z,13.34
2018-11-10T16:22:46.815Z,13.20
2018-11-10T16:25:16.129Z,13.25
2018-11-10T16:27:45.368Z,13.25
2018-11-10T16:30:17.504Z,13.09
2018-11-10T16:32:46.616Z,13.01
2018-11-10T16:35:15.512Z,13.04
2018-11-10T16:37:44.604Z,12.98
2018-11-10T16:40:15.737Z,13.00
2018-11-10T16:42:46.564Z,13.07
2018-11-10T16:45:16.244Z,13.08
2018-11-10T16:47:45.385Z,13.14
2018-11-10T16:50:14.521Z,13.10
2018-11-10T16:52:44.301Z,13.11
2018-11-10T16:55:13.410Z,13.04
2018-11-10T16:57:42.341Z,12.93
2018-11-10T17:00:13.301Z,12.83
2018-11-10T17:02:43.376Z,12.81
2018-11-10T17:05:12.415Z,12.80
2018-11-10T17:07:41.634Z,12.68
2018-11-10T17:10:13.035Z,12.64
2018-11-10T17:12:42.365Z,12.65
2018-11-10T17:15:11.730Z,12.73
2018-11-10T17:17:40.857Z,12.64
2018-11-10T17:20:13.343Z,12.59
2018-11-10T17:22:42.765Z,12.79
2018-11-10T17:25:12.806Z,12.79
2018-11-10T17:27:42.034Z,12.90
2018-11-10T17:30:13.998Z,12.93
2018-11-10T17:32:43.329Z,13.00
2018-11-10T17:35:13.142Z,13.02
2018-11-10T17:37:42.390Z,13.06
2018-11-10T17:40:12.402Z,12.97
2018-11-10T17:42:41.306Z,12.76
2018-11-10T17:45:12.344Z,12.77
2018-11-10T17:47:41.738Z,12.68
2018-11-10T17:50:12.019Z,12.50
2018-11-10T17:52:41.408Z,12.50
2018-11-10T17:55:18.566Z,12.41
2018-11-10T17:57:47.912Z,12.27
2018-11-10T18:00:17.032Z,12.27
2018-11-10T18:02:45.933Z,12.28
2018-11-10T18:05:16.009Z,12.22
2018-11-10T18:07:45.162Z,12.24
2018-11-10T18:10:15.608Z,12.04
2018-11-10T18:12:45.356Z,12.03
2018-11-10T18:15:14.703Z,11.89
2018-11-10T18:17:43.847Z,11.94
2018-11-10T18:20:14.787Z,11.74
2018-11-10T18:22:44.293Z,11.88
2018-11-10T18:25:13.341Z,11.88
2018-11-10T18:27:42.223Z,11.89
2018-11-10T18:30:13.002Z,11.70
2018-11-10T18:32:42.082Z,11.68
2018-11-10T18:35:11.478Z,11.94
2018-11-10T18:37:40.707Z,12.04
2018-11-10T18:40:09.763Z,12.08
2018-11-10T18:42:38.701Z,12.17
2018-11-10T18:45:09.088Z,12.20
2018-11-10T18:47:38.482Z,12.32
2018-11-10T18:50:09.412Z,12.35
2018-11-10T18:52:38.408Z,12.37
2018-11-10T18:55:07.377Z,12.29
2018-11-10T18:57:36.423Z,12.34
2018-11-10T19:00:05.925Z,12.19
2018-11-10T19:02:35.229Z,12.09
2018-11-10T19:05:04.280Z,12.04
2018-11-10T19:07:33.169Z,11.80
2018-11-10T19:10:02.127Z,11.59
2018-11-10T19:12:31.044Z,11.52
2018-11-10T19:15:00.031Z,11.39
2018-11-10T19:17:29.093Z,11.38
2018-11-10T19:19:58.179Z,11.17
2018-11-10T19:22:27.097Z,11.03
2018-11-10T19:24:56.005Z,10.83
2018-11-10T19:27:24.942Z,10.94
2018-11-10T19:29:53.939Z,10.82
2018-11-10T19:32:22.925Z,10.78
2018-11-10T19:34:51.795Z,10.77
2018-11-10T19:37:20.736Z,10.70
2018-11-10T19:39:49.730Z,10.72
2018-11-10T19:42:19.223Z,10.44
2018-11-10T19:44:48.208Z,10.68
2018-11-10T19:47:17.394Z,10.52
2018-11-10T19:49:46.323Z,10.38
2018-11-10T19:52:17.093Z,10.33
2018-11-10T19:54:46.322Z,10.29
2018-11-10T19:57:16.126Z,10.32
2018-11-10T19:59:45.171Z,10.36
2018-11-10T20:02:14.208Z,11.15
2018-11-10T20:04:43.138Z,11.20
2018-11-10T20:07:12.086Z,11.14
2018-11-10T20:09:41.012Z,11.02
2018-11-10T20:12:09.892Z,11.03
2018-11-10T20:14:38.764Z,10.97
2018-11-10T20:17:07.646Z,11.00
2018-11-10T20:19:36.850Z,10.96
2018-11-10T20:22:06.013Z,10.94
2018-11-10T20:24:34.887Z,10.93
2018-11-10T20:27:03.825Z,10.80
2018-11-10T20:29:32.742Z,10.81
2018-11-10T20:32:01.657Z,10.71
2018-11-10T20:34:30.686Z,10.66
2018-11-10T20:36:59.556Z,10.66
2018-11-10T20:39:28.542Z,10.62
2018-11-10T20:41:57.434Z,10.58
2018-11-10T20:44:26.338Z,10.54
2018-11-10T20:46:55.257Z,10.48
2018-11-10T20:49:24.215Z,10.49
2018-11-10T20:51:53.245Z,10.48
2018-11-10T20:54:22.094Z,10.43
2018-11-10T20:56:50.990Z,10.42
2018-11-10T20:59:19.861Z,10.38
2018-11-10T21:01:48.891Z,10.37
2018-11-10T21:04:17.923Z,10.25
2018-11-10T21:06:46.960Z,10.30
2018-11-10T21:09:15.888Z,10.20
2018-11-10T21:11:44.768Z,10.15
2018-11-10T21:14:13.698Z,10.16
2018-11-10T21:16:42.625Z,10.12
2018-11-10T21:19:11.693Z,10.12
2018-11-10T21:21:41.167Z,10.14
2018-11-10T21:24:10.359Z,10.11
2018-11-10T21:26:39.237Z,10.09
2018-11-10T21:29:08.304Z,9.97
2018-11-10T21:31:37.159Z,9.94
2018-11-10T21:34:06.346Z,9.94
2018-11-10T21:36:35.274Z,9.96
2018-11-10T21:39:04.956Z,9.97
2018-11-10T21:41:33.894Z,9.94
2018-11-10T21:44:02.758Z,9.93
2018-11-10T21:46:31.736Z,9.92
2018-11-10T21:49:00.657Z,9.89
2018-11-10T21:51:29.669Z,9.84
2018-11-10T21:53:58.936Z,9.81
2018-11-10T21:56:27.870Z,9.81
2018-11-10T21:58:56.761Z,9.85
2018-11-10T22:01:25.770Z,9.84
2018-11-10T22:03:54.682Z,9.87
2018-11-10T22:06:23.689Z,9.79
2018-11-10T22:08:52.666Z,9.70
2018-11-10T22:11:21.530Z,9.66
2018-11-10T22:13:51.080Z,9.70
2018-11-10T22:16:20.061Z,9.72
2018-11-10T22:18:48.942Z,9.64
2018-11-10T22:21:17.951Z,9.65
2018-11-10T22:23:46.845Z,9.64
2018-11-10T22:26:15.881Z,9.60
2018-11-10T22:28:44.770Z,9.55
2018-11-10T22:31:13.729Z,9.53
2018-11-10T22:33:42.642Z,9.40
2018-11-10T22:36:11.806Z,9.51
2018-11-10T22:38:40.673Z,9.45
2018-11-10T22:41:09.592Z,9.46
2018-11-10T22:43:38.401Z,9.39
2018-11-10T22:46:07.305Z,9.45
2018-11-10T22:48:36.188Z,9.44
2018-11-10T22:51:05.401Z,9.38
2018-11-10T22:53:34.325Z,9.38
2018-11-10T22:56:03.205Z,9.31
2018-11-10T22:58:32.099Z,9.38
2018-11-10T23:01:07.029Z,9.38
2018-11-10T23:03:36.934Z,9.38
2018-11-10T23:06:06.037Z,9.40
2018-11-10T23:08:35.019Z,9.35
2018-11-10T23:11:03.965Z,9.24
2018-11-10T23:13:32.894Z,9.21
2018-11-10T23:16:01.822Z,9.24
2018-11-10T23:18:30.742Z,9.23
2018-11-10T23:20:59.785Z,9.20
2018-11-10T23:23:28.733Z,9.19
2018-11-10T23:25:57.576Z,9.25
2018-11-10T23:28:26.451Z,9.23
2018-11-10T23:30:55.368Z,9.19
2018-11-10T23:33:24.257Z,9.19
2018-11-10T23:35:53.129Z,9.16
2018-11-10T23:38:22.048Z,9.17
2018-11-10T23:40:57.494Z,9.13
2018-11-10T23:43:26.515Z,9.08
2018-11-10T23:45:55.354Z,9.09
2018-11-10T23:48:24.235Z,9.03
2018-11-10T23:50:53.134Z,9.06
2018-11-10T23:53:22.034Z,9.05
2018-11-10T23:55:50.957Z,9.00
2018-11-10T23:58:19.837Z,8.92
